Weather Melbourne :: Current Conditions and Historical Data

 
Daily Summary for April 17, 2014 Units:  Both    English   Metric
« Previous Day
Next Day »
Daily Weekly Monthly Yearly Custom
  Current: High: Low: Average:
Temperature: 70.0 °F /  21.1 °C 70.0 °F /  21.1 °C 48.8 °F /  9.3 °C 53.3 °F /  11.8 °C
Dew Point: 56.4 °F /  13.6 °C 57.4 °F /  14.1 °C 47.2 °F /  8.4 °C 50.1 °F /  10.1 °C
Humidity: 62 % 100 % 60 % 90 %
Wind Speed: 3.0 mph /  4.8 km/h 4.0 mph /  6.4 km/h - 1.4 mph /  2.3 km/h
Wind Gust: 3.0 mph /  4.8 km/h 4.0 mph /  6.4 km/h - -
Wind:SSW - - ENE
Pressure: 30.12 in /  1019.9 hPa 30.14 in /  1020.5 hPa 30.09 in /  1018.8 hPa -
Precipitation: 0.00 in /  0 mm      
Melbourne, Australia Weather Graphs
 
 
Melbourne, current snapshot. Courtesy of citylink.com.au
Weather Melbourne

Melbourne Weather Radar




Weather in Melbourne, AU
Hourly Data for April 17, 2014
Time Temperature Dew Point Pressure Wind Wind Speed Wind Gust Humidity Rainfall Rate (Hourly) solar Conditions
00:03 54.3 °F /  12.4 °C 50.8 °F /  10.4 °C 30.09 in /  1018.8 hPa Calm     88 % 0.00 in /  0 mm 0.0 W/m2 CLR
00:08 54.2 °F /  12.3 °C 50.7 °F /  10.4 °C 30.09 in /  1018.8 hPa Calm     88 % 0.00 in /  0 mm 0.0 W/m2 CLR
00:13 54.1 °F /  12.3 °C 50.6 °F /  10.3 °C 30.09 in /  1018.8 hPa Calm     88 % 0.00 in /  0 mm 0.0 W/m2 CLR
00:18 54.1 °F /  12.3 °C 50.9 °F /  10.5 °C 30.09 in /  1018.8 hPa ENE 2.3 mph /  3.7 km/h 2.3 mph /  3.7 km/h 89 % 0.00 in /  0 mm 0.0 W/m2 CLR
00:23 53.9 °F /  12.2 °C 50.7 °F /  10.4 °C 30.09 in /  1018.8 hPa Calm     89 % 0.00 in /  0 mm 0.0 W/m2 CLR
00:28 53.8 °F /  12.1 °C 50.6 °F /  10.3 °C 30.09 in /  1018.8 hPa Calm     89 % 0.00 in /  0 mm 0.0 W/m2 CLR
00:33 53.7 °F /  12.1 °C 50.5 °F /  10.3 °C 30.09 in /  1018.8 hPa Calm     89 % 0.00 in /  0 mm 0.0 W/m2 CLR
00:38 53.5 °F /  11.9 °C 50.3 °F /  10.2 °C 30.09 in /  1018.8 hPa Calm     89 % 0.00 in /  0 mm 0.0 W/m2 CLR
00:43 53.4 °F /  11.9 °C 50.2 °F /  10.1 °C 30.09 in /  1018.8 hPa Calm     89 % 0.00 in /  0 mm 0.0 W/m2 CLR
00:48 53.3 °F /  11.8 °C 50.1 °F /  10.1 °C 30.09 in /  1018.8 hPa Calm     89 % 0.00 in /  0 mm 0.0 W/m2 CLR
00:53 53.2 °F /  11.8 °C 50.9 °F /  10.5 °C 30.09 in /  1018.8 hPa Calm     92 % 0.00 in /  0 mm 0.0 W/m2 CLR
00:58 53.1 °F /  11.7 °C 49.9 °F /  9.9 °C 30.10 in /  1019.2 hPa Calm     89 % 0.00 in /  0 mm 0.0 W/m2 CLR
01:03 53.1 °F /  11.7 °C 49.9 °F /  9.9 °C 30.10 in /  1019.2 hPa Calm     89 % 0.00 in /  0 mm 0.0 W/m2 CLR
01:08 53.0 °F /  11.7 °C 49.8 °F /  9.9 °C 30.10 in /  1019.2 hPa Calm     89 % 0.00 in /  0 mm 0.0 W/m2 CLR
01:13 52.9 °F /  11.6 °C 49.7 °F /  9.8 °C 30.10 in /  1019.2 hPa Calm     89 % 0.00 in /  0 mm 0.0 W/m2 CLR
01:18 52.9 °F /  11.6 °C 50.0 °F /  10 °C 30.10 in /  1019.2 hPa Calm     90 % 0.00 in /  0 mm 0.0 W/m2 CLR
01:23 52.9 °F /  11.6 °C 50.0 °F /  10 °C 30.10 in /  1019.2 hPa Calm     90 % 0.00 in /  0 mm 0.0 W/m2 CLR
01:28 52.7 °F /  11.5 °C 49.8 °F /  9.9 °C 30.10 in /  1019.2 hPa Calm     90 % 0.00 in /  0 mm 0.0 W/m2 CLR
01:33 52.6 °F /  11.4 °C 49.8 °F /  9.9 °C 30.09 in /  1018.8 hPa NE 1.0 mph /  1.6 km/h 1.0 mph /  1.6 km/h 90 % 0.00 in /  0 mm 0.0 W/m2 CLR
01:38 52.5 °F /  11.4 °C 49.9 °F /  9.9 °C 30.09 in /  1018.8 hPa NE 2.3 mph /  3.7 km/h 2.3 mph /  3.7 km/h 91 % 0.00 in /  0 mm 0.0 W/m2 CLR
01:43 52.4 °F /  11.3 °C 49.8 °F /  9.9 °C 30.09 in /  1018.8 hPa NE 3.5 mph /  5.6 km/h 3.5 mph /  5.6 km/h 91 % 0.00 in /  0 mm 0.0 W/m2 CLR
01:48 52.3 °F /  11.3 °C 49.8 °F /  9.9 °C 30.09 in /  1018.8 hPa NE 2.3 mph /  3.7 km/h 2.3 mph /  3.7 km/h 91 % 0.00 in /  0 mm 0.0 W/m2 CLR
01:53 52.2 °F /  11.2 °C 49.7 °F /  9.8 °C 30.09 in /  1018.8 hPa NE 2.3 mph /  3.7 km/h 2.3 mph /  3.7 km/h 91 % 0.00 in /  0 mm 0.0 W/m2 CLR
01:58 52.1 °F /  11.2 °C 49.6 °F /  9.8 °C 30.09 in /  1018.8 hPa NE 1.2 mph /  1.9 km/h 1.2 mph /  1.9 km/h 91 % 0.00 in /  0 mm 0.0 W/m2 CLR
02:03 52.0 °F /  11.1 °C 49.5 °F /  9.7 °C 30.09 in /  1018.8 hPa NNE 3.5 mph /  5.6 km/h 3.5 mph /  5.6 km/h 91 % 0.00 in /  0 mm 0.0 W/m2 CLR
02:08 51.9 °F /  11.1 °C 49.4 °F /  9.7 °C 30.09 in /  1018.8 hPa NNE 2.3 mph /  3.7 km/h 2.3 mph /  3.7 km/h 91 % 0.00 in /  0 mm 0.0 W/m2 CLR
02:14 51.9 °F /  11.1 °C 49.4 °F /  9.7 °C 30.09 in /  1018.8 hPa NNE 1.2 mph /  1.9 km/h 1.2 mph /  1.9 km/h 91 % 0.00 in /  0 mm 0.0 W/m2 CLR
02:19 51.8 °F /  11 °C 49.5 °F /  9.7 °C 30.09 in /  1018.8 hPa NNE 3.5 mph /  5.6 km/h 3.5 mph /  5.6 km/h 92 % 0.00 in /  0 mm 0.0 W/m2 CLR
02:24 51.9 °F /  11.1 °C 49.6 °F /  9.8 °C 30.09 in /  1018.8 hPa NE 3.5 mph /  5.6 km/h 3.5 mph /  5.6 km/h 92 % 0.00 in /  0 mm 0.0 W/m2 CLR
02:29 51.9 °F /  11.1 °C 49.6 °F /  9.8 °C 30.09 in /  1018.8 hPa NE 1.2 mph /  1.9 km/h 1.2 mph /  1.9 km/h 92 % 0.00 in /  0 mm 0.0 W/m2 CLR
02:34 51.9 °F /  11.1 °C 49.6 °F /  9.8 °C 30.09 in /  1018.8 hPa NE 1.2 mph /  1.9 km/h 1.2 mph /  1.9 km/h 92 % 0.00 in /  0 mm 0.0 W/m2 CLR
02:39 51.8 °F /  11 °C 49.5 °F /  9.7 °C 30.09 in /  1018.8 hPa NE 1.0 mph /  1.6 km/h 1.2 mph /  1.9 km/h 92 % 0.00 in /  0 mm 0.0 W/m2 CLR
02:44 51.7 °F /  10.9 °C 49.5 °F /  9.7 °C 30.09 in /  1018.8 hPa NNE 3.5 mph /  5.6 km/h 3.5 mph /  5.6 km/h 92 % 0.00 in /  0 mm 0.0 W/m2 CLR
02:49 51.6 °F /  10.9 °C 49.4 °F /  9.7 °C 30.09 in /  1018.8 hPa NE 3.5 mph /  5.6 km/h 3.5 mph /  5.6 km/h 92 % 0.00 in /  0 mm 0.0 W/m2 CLR
02:54 51.5 °F /  10.8 °C 49.3 °F /  9.6 °C 30.09 in /  1018.8 hPa NNE 4.0 mph /  6.4 km/h 4.0 mph /  6.4 km/h 92 % 0.00 in /  0 mm 0.0 W/m2 CLR
02:59 51.5 °F /  10.8 °C 49.3 °F /  9.6 °C 30.09 in /  1018.8 hPa ENE 3.5 mph /  5.6 km/h 3.5 mph /  5.6 km/h 92 % 0.00 in /  0 mm 0.0 W/m2 CLR
03:04 51.4 °F /  10.8 °C 49.4 °F /  9.7 °C 30.09 in /  1018.8 hPa North 3.5 mph /  5.6 km/h 3.5 mph /  5.6 km/h 93 % 0.00 in /  0 mm 0.0 W/m2 CLR
03:09 51.4 °F /  10.8 °C 49.4 °F /  9.7 °C 30.09 in /  1018.8 hPa Calm     93 % 0.00 in /  0 mm 0.0 W/m2 CLR
03:14 51.3 °F /  10.7 °C 49.3 °F /  9.6 °C 30.09 in /  1018.8 hPa Calm     93 % 0.00 in /  0 mm 0.0 W/m2 CLR
03:19 51.2 °F /  10.7 °C 49.2 °F /  9.6 °C 30.09 in /  1018.8 hPa North 1.2 mph /  1.9 km/h 1.2 mph /  1.9 km/h 93 % 0.00 in /  0 mm 0.0 W/m2 CLR
03:24 51.0 °F /  10.6 °C 48.8 °F /  9.3 °C 30.09 in /  1018.8 hPa Calm     92 % 0.00 in /  0 mm 0.0 W/m2 CLR
03:29 50.8 °F /  10.4 °C 48.6 °F /  9.2 °C 30.09 in /  1018.8 hPa Calm     92 % 0.00 in /  0 mm 0.0 W/m2 CLR
03:34 50.6 °F /  10.3 °C 48.4 °F /  9.1 °C 30.09 in /  1018.8 hPa NE 1.2 mph /  1.9 km/h 1.2 mph /  1.9 km/h 92 % 0.00 in /  0 mm 0.0 W/m2 CLR
03:39 50.5 °F /  10.3 °C 48.6 °F /  9.2 °C 30.09 in /  1018.8 hPa Calm     93 % 0.00 in /  0 mm 0.0 W/m2 CLR
03:44 50.4 °F /  10.2 °C 48.2 °F /  9 °C 30.09 in /  1018.8 hPa Calm     92 % 0.00 in /  0 mm 0.0 W/m2 CLR
03:49 50.2 °F /  10.1 °C 48.0 °F /  8.9 °C 30.09 in /  1018.8 hPa Calm     92 % 0.00 in /  0 mm 0.0 W/m2 CLR
03:54 50.1 °F /  10.1 °C 48.2 °F /  9 °C 30.09 in /  1018.8 hPa Calm     93 % 0.00 in /  0 mm 0.0 W/m2 CLR
03:59 50.0 °F /  10 °C 48.1 °F /  8.9 °C 30.09 in /  1018.8 hPa Calm     93 % 0.00 in /  0 mm 0.0 W/m2 CLR
04:04 49.9 °F /  9.9 °C 48.0 °F /  8.9 °C 30.10 in /  1019.2 hPa Calm     93 % 0.00 in /  0 mm 0.0 W/m2 CLR
04:09 49.9 °F /  9.9 °C 48.0 °F /  8.9 °C 30.09 in /  1018.8 hPa Calm     93 % 0.00 in /  0 mm 0.0 W/m2 CLR
04:14 49.8 °F /  9.9 °C 47.9 °F /  8.8 °C 30.10 in /  1019.2 hPa Calm     93 % 0.00 in /  0 mm 0.0 W/m2 CLR
04:19 49.8 °F /  9.9 °C 47.9 °F /  8.8 °C 30.10 in /  1019.2 hPa Calm     93 % 0.00 in /  0 mm 0.0 W/m2 CLR
04:24 49.7 °F /  9.8 °C 47.8 °F /  8.8 °C 30.10 in /  1019.2 hPa Calm     93 % 0.00 in /  0 mm 0.0 W/m2 CLR
04:29 49.7 °F /  9.8 °C 47.8 °F /  8.8 °C 30.10 in /  1019.2 hPa Calm     93 % 0.00 in /  0 mm 0.0 W/m2 CLR
04:34 49.6 °F /  9.8 °C 47.7 °F /  8.7 °C 30.10 in /  1019.2 hPa Calm     93 % 0.00 in /  0 mm 0.0 W/m2 CLR
04:39 49.6 °F /  9.8 °C 47.7 °F /  8.7 °C 30.10 in /  1019.2 hPa NE 1.2 mph /  1.9 km/h 1.2 mph /  1.9 km/h 93 % 0.00 in /  0 mm 0.0 W/m2 CLR
04:44 49.6 °F /  9.8 °C 47.7 °F /  8.7 °C 30.10 in /  1019.2 hPa NE 3.5 mph /  5.6 km/h 3.5 mph /  5.6 km/h 93 % 0.00 in /  0 mm 0.0 W/m2 CLR
04:49 49.6 °F /  9.8 °C 47.7 °F /  8.7 °C 30.10 in /  1019.2 hPa NE 2.3 mph /  3.7 km/h 2.3 mph /  3.7 km/h 93 % 0.00 in /  0 mm 0.0 W/m2 CLR
04:54 49.7 °F /  9.8 °C 47.8 °F /  8.8 °C 30.10 in /  1019.2 hPa NE 1.2 mph /  1.9 km/h 1.2 mph /  1.9 km/h 93 % 0.00 in /  0 mm 0.0 W/m2 CLR
04:59 49.7 °F /  9.8 °C 47.8 °F /  8.8 °C 30.10 in /  1019.2 hPa NE 1.2 mph /  1.9 km/h   93 % 0.00 in /  0 mm 0.0 W/m2 CLR
05:04 49.6 °F /  9.8 °C 47.7 °F /  8.7 °C 30.10 in /  1019.2 hPa NE 1.2 mph /  1.9 km/h 1.2 mph /  1.9 km/h 93 % 0.00 in /  0 mm 0.0 W/m2 CLR
05:09 49.5 °F /  9.7 °C 47.6 °F /  8.7 °C 30.11 in /  1019.5 hPa NE 2.0 mph /  3.2 km/h 2.0 mph /  3.2 km/h 93 % 0.00 in /  0 mm 0.0 W/m2 CLR
05:14 49.4 °F /  9.7 °C 47.5 °F /  8.6 °C 30.11 in /  1019.5 hPa NE 2.3 mph /  3.7 km/h 2.3 mph /  3.7 km/h 93 % 0.00 in /  0 mm 0.0 W/m2 CLR
05:19 49.3 °F /  9.6 °C 47.4 °F /  8.6 °C 30.10 in /  1019.2 hPa NE 3.5 mph /  5.6 km/h 3.5 mph /  5.6 km/h 93 % 0.00 in /  0 mm 0.0 W/m2 CLR
05:24 49.3 °F /  9.6 °C 47.4 °F /  8.6 °C 30.10 in /  1019.2 hPa NE 2.3 mph /  3.7 km/h 2.3 mph /  3.7 km/h 93 % 0.00 in /  0 mm 0.0 W/m2 CLR
05:29 49.2 °F /  9.6 °C 47.3 °F /  8.5 °C 30.11 in /  1019.5 hPa NE 1.2 mph /  1.9 km/h 1.2 mph /  1.9 km/h 93 % 0.00 in /  0 mm 0.0 W/m2 CLR
05:34 49.2 °F /  9.6 °C 47.3 °F /  8.5 °C 30.11 in /  1019.5 hPa NE 2.0 mph /  3.2 km/h 2.0 mph /  3.2 km/h 93 % 0.00 in /  0 mm 0.0 W/m2 CLR
05:39 49.3 °F /  9.6 °C 47.4 °F /  8.6 °C 30.11 in /  1019.5 hPa Calm     93 % 0.00 in /  0 mm 0.0 W/m2 CLR
05:44 49.4 °F /  9.7 °C 47.7 °F /  8.7 °C 30.11 in /  1019.5 hPa NE 2.3 mph /  3.7 km/h 2.3 mph /  3.7 km/h 94 % 0.00 in /  0 mm 0.0 W/m2 CLR
05:49 49.4 °F /  9.7 °C 47.7 °F /  8.7 °C 30.11 in /  1019.5 hPa NNE 2.3 mph /  3.7 km/h 2.3 mph /  3.7 km/h 94 % 0.00 in /  0 mm 0.0 W/m2 CLR
05:54 49.5 °F /  9.7 °C 47.8 °F /  8.8 °C 30.11 in /  1019.5 hPa ENE 3.5 mph /  5.6 km/h 3.5 mph /  5.6 km/h 94 % 0.00 in /  0 mm 0.0 W/m2 CLR
05:59 49.5 °F /  9.7 °C 47.8 °F /  8.8 °C 30.11 in /  1019.5 hPa Calm     94 % 0.00 in /  0 mm 0.0 W/m2 CLR
06:04 49.5 °F /  9.7 °C 47.8 °F /  8.8 °C 30.11 in /  1019.5 hPa NNE 1.0 mph /  1.6 km/h 1.0 mph /  1.6 km/h 94 % 0.00 in /  0 mm 0.0 W/m2 CLR
06:09 49.5 °F /  9.7 °C 47.8 °F /  8.8 °C 30.11 in /  1019.5 hPa NNE 2.3 mph /  3.7 km/h 2.3 mph /  3.7 km/h 94 % 0.00 in /  0 mm 0.0 W/m2 CLR
06:14 49.5 °F /  9.7 °C 47.8 °F /  8.8 °C 30.12 in /  1019.9 hPa NE 2.3 mph /  3.7 km/h 2.3 mph /  3.7 km/h 94 % 0.00 in /  0 mm 0.0 W/m2 CLR
06:19 49.6 °F /  9.8 °C 47.9 °F /  8.8 °C 30.11 in /  1019.5 hPa Calm     94 % 0.00 in /  0 mm 0.0 W/m2 CLR
06:24 49.6 °F /  9.8 °C 47.9 °F /  8.8 °C 30.11 in /  1019.5 hPa Calm     94 % 0.00 in /  0 mm 0.0 W/m2 CLR
06:29 49.5 °F /  9.7 °C 47.8 °F /  8.8 °C 30.11 in /  1019.5 hPa Calm     94 % 0.00 in /  0 mm 0.0 W/m2 CLR
06:34 49.4 °F /  9.7 °C 47.7 °F /  8.7 °C 30.11 in /  1019.5 hPa Calm     94 % 0.00 in /  0 mm 0.0 W/m2 OVC
06:39 49.4 °F /  9.7 °C 47.7 °F /  8.7 °C 30.11 in /  1019.5 hPa Calm     94 % 0.00 in /  0 mm 0.0 W/m2 OVC
06:44 49.3 °F /  9.6 °C 47.6 °F /  8.7 °C 30.12 in /  1019.9 hPa Calm     94 % 0.00 in /  0 mm 0.0 W/m2 OVC
06:49 49.3 °F /  9.6 °C 47.6 °F /  8.7 °C 30.12 in /  1019.9 hPa Calm     94 % 0.00 in /  0 mm 0.0 W/m2 OVC
06:54 49.2 °F /  9.6 °C 47.5 °F /  8.6 °C 30.12 in /  1019.9 hPa Calm     94 % 0.00 in /  0 mm 5.0 W/m2 BKN
06:59 49.2 °F /  9.6 °C 47.5 °F /  8.6 °C 30.12 in /  1019.9 hPa NE 3.5 mph /  5.6 km/h 3.5 mph /  5.6 km/h 94 % 0.00 in /  0 mm 7.0 W/m2 BKN
07:04 49.2 °F /  9.6 °C 47.5 °F /  8.6 °C 30.12 in /  1019.9 hPa NE 1.2 mph /  1.9 km/h 1.2 mph /  1.9 km/h 94 % 0.00 in /  0 mm 11.0 W/m2 BKN
07:09 49.2 °F /  9.6 °C 47.5 °F /  8.6 °C 30.12 in /  1019.9 hPa Calm     94 % 0.00 in /  0 mm 12.0 W/m2 BKN
07:14 49.0 °F /  9.4 °C 47.3 °F /  8.5 °C 30.13 in /  1020.2 hPa ENE 1.2 mph /  1.9 km/h 1.2 mph /  1.9 km/h 94 % 0.00 in /  0 mm 14.0 W/m2 BKN
07:19 48.9 °F /  9.4 °C 47.2 °F /  8.4 °C 30.13 in /  1020.2 hPa ENE 1.2 mph /  1.9 km/h 1.2 mph /  1.9 km/h 94 % 0.00 in /  0 mm 16.0 W/m2 BKN
07:24 48.8 °F /  9.3 °C 47.2 °F /  8.4 °C 30.13 in /  1020.2 hPa ENE 2.3 mph /  3.7 km/h 2.3 mph /  3.7 km/h 94 % 0.00 in /  0 mm 18.0 W/m2 BKN
07:29 48.8 °F /  9.3 °C 47.2 °F /  8.4 °C 30.13 in /  1020.2 hPa NE 1.2 mph /  1.9 km/h   94 % 0.00 in /  0 mm 23.0 W/m2 BKN
07:34 49.0 °F /  9.4 °C 47.3 °F /  8.5 °C 30.13 in /  1020.2 hPa NE 1.2 mph /  1.9 km/h 1.2 mph /  1.9 km/h 94 % 0.00 in /  0 mm 26.0 W/m2 BKN
07:39 49.1 °F /  9.5 °C 47.4 °F /  8.6 °C 30.14 in /  1020.5 hPa NE 1.0 mph /  1.6 km/h 1.0 mph /  1.6 km/h 94 % 0.00 in /  0 mm 28.0 W/m2 BKN
07:44 49.2 °F /  9.6 °C 47.5 °F /  8.6 °C 30.14 in /  1020.5 hPa NNE 2.3 mph /  3.7 km/h 2.3 mph /  3.7 km/h 94 % 0.00 in /  0 mm 30.0 W/m2 BKN
07:49 49.4 °F /  9.7 °C 48.0 °F /  8.9 °C 30.14 in /  1020.5 hPa NE 1.2 mph /  1.9 km/h 1.2 mph /  1.9 km/h 95 % 0.00 in /  0 mm 32.0 W/m2 BKN
07:54 49.6 °F /  9.8 °C 48.2 °F /  9 °C 30.14 in /  1020.5 hPa NE 1.2 mph /  1.9 km/h   95 % 0.00 in /  0 mm 33.0 W/m2 BKN
07:59 49.9 °F /  9.9 °C 48.5 °F /  9.2 °C 30.14 in /  1020.5 hPa NNE 2.0 mph /  3.2 km/h 2.0 mph /  3.2 km/h 95 % 0.00 in /  0 mm 33.0 W/m2 BKN
08:04 50.0 °F /  10 °C 48.6 °F /  9.2 °C 30.14 in /  1020.5 hPa NE 1.2 mph /  1.9 km/h 1.2 mph /  1.9 km/h 95 % 0.00 in /  0 mm 35.0 W/m2 BKN
08:09 50.1 °F /  10.1 °C 48.7 °F /  9.3 °C 30.14 in /  1020.5 hPa Calm     95 % 0.00 in /  0 mm 35.0 W/m2 BKN
08:14 50.2 °F /  10.1 °C 48.8 °F /  9.3 °C 30.14 in /  1020.5 hPa Calm     95 % 0.00 in /  0 mm 37.0 W/m2 BKN
08:19 50.4 °F /  10.2 °C 49.0 °F /  9.4 °C 30.14 in /  1020.5 hPa Calm     95 % 0.00 in /  0 mm 37.0 W/m2 BKN
08:24 50.5 °F /  10.3 °C 49.1 °F /  9.5 °C 30.14 in /  1020.5 hPa Calm     95 % 0.00 in /  0 mm 39.0 W/m2 BKN
08:29 50.6 °F /  10.3 °C 49.2 °F /  9.6 °C 30.14 in /  1020.5 hPa ENE 1.2 mph /  1.9 km/h   95 % 0.00 in /  0 mm 42.0 W/m2 BKN
08:34 50.8 °F /  10.4 °C 49.4 °F /  9.7 °C 30.14 in /  1020.5 hPa Calm     95 % 0.00 in /  0 mm 244.0 W/m2 BKN
08:39 51.0 °F /  10.6 °C 49.6 °F /  9.8 °C 30.14 in /  1020.5 hPa East 1.2 mph /  1.9 km/h 1.2 mph /  1.9 km/h 95 % 0.00 in /  0 mm 264.0 W/m2 SCT
08:44 51.3 °F /  10.7 °C 49.9 °F /  9.9 °C 30.14 in /  1020.5 hPa East 1.2 mph /  1.9 km/h 1.2 mph /  1.9 km/h 95 % 0.00 in /  0 mm 279.0 W/m2 FEW
08:49 51.7 °F /  10.9 °C 50.3 °F /  10.2 °C 30.14 in /  1020.5 hPa East 1.2 mph /  1.9 km/h 1.2 mph /  1.9 km/h 95 % 0.00 in /  0 mm 294.0 W/m2 FEW
08:54 52.0 °F /  11.1 °C 50.6 °F /  10.3 °C 30.14 in /  1020.5 hPa East 3.5 mph /  5.6 km/h 3.5 mph /  5.6 km/h 95 % 0.00 in /  0 mm 308.0 W/m2 FEW
08:59 52.3 °F /  11.3 °C 51.2 °F /  10.7 °C 30.14 in /  1020.5 hPa East 2.3 mph /  3.7 km/h 2.3 mph /  3.7 km/h 96 % 0.00 in /  0 mm 320.0 W/m2 FEW
09:04 52.8 °F /  11.6 °C 51.7 °F /  10.9 °C 30.14 in /  1020.5 hPa East 2.3 mph /  3.7 km/h 2.3 mph /  3.7 km/h 96 % 0.00 in /  0 mm 334.0 W/m2 CLR
09:09 53.4 °F /  11.9 °C 52.3 °F /  11.3 °C 30.14 in /  1020.5 hPa East 2.3 mph /  3.7 km/h 2.3 mph /  3.7 km/h 96 % 0.00 in /  0 mm 348.0 W/m2 CLR
09:14 54.2 °F /  12.3 °C 53.1 °F /  11.7 °C 30.14 in /  1020.5 hPa East 3.5 mph /  5.6 km/h 3.5 mph /  5.6 km/h 96 % 0.00 in /  0 mm 362.0 W/m2 CLR
09:19 54.8 °F /  12.7 °C 53.7 °F /  12.1 °C 30.14 in /  1020.5 hPa ESE 3.0 mph /  4.8 km/h 3.0 mph /  4.8 km/h 96 % 0.00 in /  0 mm 380.0 W/m2 CLR
09:24 55.3 °F /  12.9 °C 54.2 °F /  12.3 °C 30.14 in /  1020.5 hPa ENE 2.3 mph /  3.7 km/h 2.3 mph /  3.7 km/h 96 % 0.00 in /  0 mm 406.0 W/m2 CLR
09:29 56.2 °F /  13.4 °C 56.2 °F /  13.4 °C 30.14 in /  1020.5 hPa East 2.3 mph /  3.7 km/h 2.3 mph /  3.7 km/h 100 % 0.00 in /  0 mm 420.0 W/m2 CLR
09:34 57.0 °F /  13.9 °C 57.0 °F /  13.9 °C 30.13 in /  1020.2 hPa NE 3.5 mph /  5.6 km/h 3.5 mph /  5.6 km/h 100 % 0.00 in /  0 mm 431.0 W/m2 CLR
09:39 57.6 °F /  14.2 °C 56.5 °F /  13.6 °C 30.13 in /  1020.2 hPa ENE 2.3 mph /  3.7 km/h 2.3 mph /  3.7 km/h 96 % 0.00 in /  0 mm 446.0 W/m2 CLR
09:44 58.7 °F /  14.8 °C 57.3 °F /  14.1 °C 30.13 in /  1020.2 hPa NE 3.5 mph /  5.6 km/h 3.5 mph /  5.6 km/h 95 % 0.00 in /  0 mm 459.0 W/m2 CLR
09:49 60.5 °F /  15.8 °C 56.6 °F /  13.7 °C 30.13 in /  1020.2 hPa East 2.3 mph /  3.7 km/h 2.3 mph /  3.7 km/h 87 % 0.00 in /  0 mm 471.0 W/m2 CLR
09:54 61.6 °F /  16.4 °C 55.7 °F /  13.2 °C 30.13 in /  1020.2 hPa NE 1.2 mph /  1.9 km/h 1.2 mph /  1.9 km/h 81 % 0.00 in /  0 mm 483.0 W/m2 CLR
09:59 62.4 °F /  16.9 °C 55.4 °F /  13 °C 30.13 in /  1020.2 hPa ENE 3.5 mph /  5.6 km/h 3.5 mph /  5.6 km/h 78 % 0.00 in /  0 mm 494.0 W/m2 CLR
10:04 63.1 °F /  17.3 °C 55.4 °F /  13 °C 30.13 in /  1020.2 hPa ENE 1.0 mph /  1.6 km/h 1.0 mph /  1.6 km/h 76 % 0.00 in /  0 mm 506.0 W/m2 CLR
10:09 63.6 °F /  17.6 °C 55.5 °F /  13.1 °C 30.13 in /  1020.2 hPa ENE 3.5 mph /  5.6 km/h 3.5 mph /  5.6 km/h 75 % 0.00 in /  0 mm 517.0 W/m2 CLR
10:14 64.5 °F /  18.1 °C 55.7 °F /  13.2 °C 30.13 in /  1020.2 hPa East 1.2 mph /  1.9 km/h 1.2 mph /  1.9 km/h 73 % 0.00 in /  0 mm 527.0 W/m2 CLR
10:19 64.3 °F /  17.9 °C 55.5 °F /  13.1 °C 30.12 in /  1019.9 hPa East 2.3 mph /  3.7 km/h 2.3 mph /  3.7 km/h 73 % 0.00 in /  0 mm 538.0 W/m2 CLR
10:24 65.3 °F /  18.5 °C 55.3 °F /  12.9 °C 30.12 in /  1019.9 hPa ENE 1.2 mph /  1.9 km/h 1.2 mph /  1.9 km/h 70 % 0.00 in /  0 mm 547.0 W/m2 CLR
10:29 65.3 °F /  18.5 °C 55.3 °F /  12.9 °C 30.12 in /  1019.9 hPa ESE 3.0 mph /  4.8 km/h 3.0 mph /  4.8 km/h 70 % 0.00 in /  0 mm 557.0 W/m2 CLR
10:34 66.6 °F /  19.2 °C 56.5 °F /  13.6 °C 30.12 in /  1019.9 hPa East 2.3 mph /  3.7 km/h 2.3 mph /  3.7 km/h 70 % 0.00 in /  0 mm 568.0 W/m2 CLR
10:39 67.4 °F /  19.7 °C 56.5 °F /  13.6 °C 30.12 in /  1019.9 hPa ENE 1.2 mph /  1.9 km/h 1.2 mph /  1.9 km/h 68 % 0.00 in /  0 mm 577.0 W/m2 CLR
10:44 67.1 °F /  19.5 °C 55.8 °F /  13.2 °C 30.12 in /  1019.9 hPa SSE 1.2 mph /  1.9 km/h   67 % 0.00 in /  0 mm 584.0 W/m2 CLR
10:49 67.6 °F /  19.8 °C 56.2 °F /  13.4 °C 30.12 in /  1019.9 hPa NE 3.5 mph /  5.6 km/h 3.5 mph /  5.6 km/h 67 % 0.00 in /  0 mm 589.0 W/m2 CLR
10:54 68.2 °F /  20.1 °C 55.6 °F /  13.1 °C 30.12 in /  1019.9 hPa NNW 2.3 mph /  3.7 km/h 2.3 mph /  3.7 km/h 64 % 0.00 in /  0 mm 596.0 W/m2 CLR
10:59 69.2 °F /  20.7 °C 57.4 °F /  14.1 °C 30.12 in /  1019.9 hPa ESE 3.5 mph /  5.6 km/h 3.5 mph /  5.6 km/h 66 % 0.00 in /  0 mm 605.0 W/m2 CLR
11:04 68.9 °F /  20.5 °C 54.4 °F /  12.4 °C 30.12 in /  1019.9 hPa ESE 3.5 mph /  5.6 km/h 3.5 mph /  5.6 km/h 60 % 0.00 in /  0 mm 606.0 W/m2 FEW
11:09 69.3 °F /  20.7 °C 56.2 °F /  13.4 °C 30.12 in /  1019.9 hPa SSW 2.3 mph /  3.7 km/h 2.3 mph /  3.7 km/h 63 % 0.00 in /  0 mm 612.0 W/m2 FEW
11:14 70.0 °F /  21.1 °C 55.9 °F /  13.3 °C 30.12 in /  1019.9 hPa ESE 2.3 mph /  3.7 km/h 2.3 mph /  3.7 km/h 61 % 0.00 in /  0 mm 615.0 W/m2 FEW
11:19 70.0 °F /  21.1 °C 56.4 °F /  13.6 °C 30.12 in /  1019.9 hPa SSW 3.0 mph /  4.8 km/h 3.0 mph /  4.8 km/h 62 % 0.00 in /  0 mm 628.0 W/m2 FEW
Melbourne Forecast
About Melbourne | City of Melbourne official website